Time;durP1;ratioP1;P1;durP2;ratioP2;P2;SDS_P1;SDS_P2;PMS_P1;PMS_P2;Temp;Humidity;BMP_temperature;BMP_pressure;BME280_temperature;BME280_humidity;BME280_pressure;Samples;Min_cycle;Max_cycle;Signal;HPM_P1;HPM_P2
2023/05/25 00:00:22;;;;;;;7.78;3.40;;;14.20;99.90;;;;;;4955845;28;20255;-74
2023/05/25 00:02:53;;;;;;;11.95;3.72;;;14.30;99.90;;;;;;4959198;28;20196;-74
2023/05/25 00:05:27;;;;;;;10.48;3.45;;;14.30;99.90;;;;;;4954368;28;20204;-74
2023/05/25 00:07:58;;;;;;;8.88;3.65;;;14.40;99.90;;;;;;4954606;28;20203;-74
2023/05/25 00:10:29;;;;;;;11.73;3.42;;;14.50;99.90;;;;;;4955009;28;20539;-74
2023/05/25 00:13:00;;;;;;;9.52;3.53;;;14.60;99.90;;;;;;4952955;28;20730;-74
2023/05/25 00:15:31;;;;;;;8.25;3.35;;;14.70;99.90;;;;;;4955273;28;20225;-74
2023/05/25 00:18:02;;;;;;;9.80;3.28;;;14.80;99.90;;;;;;4954334;28;20235;-74
2023/05/25 00:20:35;;;;;;;13.50;3.35;;;14.90;99.90;;;;;;4952247;28;20223;-74
2023/05/25 00:23:07;;;;;;;9.70;3.10;;;15.10;99.90;;;;;;4954768;28;20201;-74
2023/05/25 00:25:38;;;;;;;6.63;2.78;;;15.20;99.90;;;;;;4955503;28;20205;-74
2023/05/25 00:28:09;;;;;;;5.60;2.63;;;15.40;99.90;;;;;;4955421;28;20212;-74
2023/05/25 00:30:40;;;;;;;8.23;3.28;;;15.50;99.90;;;;;;4954060;28;20205;-75
2023/05/25 00:33:11;;;;;;;13.63;3.45;;;15.60;99.90;;;;;;4951287;29;20201;-74
2023/05/25 00:35:45;;;;;;;8.75;3.08;;;15.80;99.90;;;;;;4955371;28;20629;-74
2023/05/25 00:38:19;;;;;;;15.57;3.15;;;15.90;99.90;;;;;;4955964;28;20228;-74
2023/05/25 00:40:51;;;;;;;11.88;3.42;;;15.90;99.90;;;;;;4955963;28;20192;-74
2023/05/25 00:43:22;;;;;;;8.63;3.08;;;16.00;99.90;;;;;;4955780;28;20188;-74
2023/05/25 00:45:53;;;;;;;9.73;3.10;;;16.10;99.90;;;;;;4955658;28;20197;-73
2023/05/25 00:48:26;;;;;;;8.13;3.08;;;16.20;99.90;;;;;;4955885;28;20197;-74
2023/05/25 00:51:00;;;;;;;8.25;2.90;;;16.20;99.90;;;;;;4954966;28;20201;-74
2023/05/25 00:53:32;;;;;;;9.65;3.15;;;16.30;99.90;;;;;;4955516;28;20197;-74
2023/05/25 00:56:15;;;;;;;6.63;2.80;;;16.40;99.90;;;;;;4954642;28;20276;-74
2023/05/25 00:58:48;;;;;;;8.90;2.95;;;16.50;99.90;;;;;;4955430;28;20201;-74
2023/05/25 01:01:20;;;;;;;8.73;3.28;;;16.60;99.90;;;;;;4954410;28;20220;-73
2023/05/25 01:03:54;;;;;;;10.38;3.30;;;16.70;99.90;;;;;;4952851;29;20204;-74
2023/05/25 01:06:28;;;;;;;6.20;2.70;;;16.90;99.90;;;;;;4953606;28;20203;-74
2023/05/25 01:09:02;;;;;;;7.78;2.80;;;17.00;99.90;;;;;;4955120;28;20224;-74
2023/05/25 01:11:38;;;;;;;6.72;2.63;;;17.10;99.90;;;;;;4955353;28;20209;-74
2023/05/25 01:14:10;;;;;;;8.13;2.70;;;17.20;99.90;;;;;;4955488;28;20217;-73
2023/05/25 01:16:42;;;;;;;6.57;2.80;;;17.20;99.90;;;;;;4955122;28;20233;-74
2023/05/25 01:19:13;;;;;;;7.03;2.80;;;17.30;99.90;;;;;;4953889;28;20197;-74
2023/05/25 01:21:53;;;;;;;6.63;2.70;;;17.30;99.90;;;;;;4951184;28;20200;-74
2023/05/25 01:24:31;;;;;;;5.45;2.75;;;17.40;99.90;;;;;;4949575;28;20201;-74
2023/05/25 01:27:07;;;;;;;5.05;2.30;;;17.50;99.90;;;;;;4954748;28;20236;-74
2023/05/25 01:29:40;;;;;;;6.95;2.45;;;17.60;99.90;;;;;;4953025;28;20206;-74
2023/05/25 01:32:12;;;;;;;10.20;2.85;;;17.70;99.90;;;;;;4951348;28;20197;-74
2023/05/25 01:34:45;;;;;;;9.10;2.53;;;17.80;99.90;;;;;;4950579;28;20219;-74
2023/05/25 01:37:22;;;;;;;6.95;2.60;;;17.90;99.90;;;;;;4954959;28;20212;-73
2023/05/25 01:39:53;;;;;;;6.15;2.60;;;18.00;99.90;;;;;;4954398;28;20199;-74
2023/05/25 01:42:24;;;;;;;7.05;2.50;;;18.10;99.90;;;;;;4952744;28;20219;-74
2023/05/25 01:44:55;;;;;;;6.53;2.33;;;18.30;99.90;;;;;;4955233;28;20627;-73
2023/05/25 01:47:33;;;;;;;6.00;2.47;;;18.30;99.90;;;;;;4954360;28;20208;-74
2023/05/25 01:50:09;;;;;;;6.72;2.72;;;18.40;99.90;;;;;;4950650;28;20200;-73
2023/05/25 01:52:48;;;;;;;6.90;2.55;;;18.50;99.90;;;;;;4953946;28;20204;-74
2023/05/25 01:55:22;;;;;;;7.88;3.15;;;18.50;99.90;;;;;;4955062;28;20224;-74
2023/05/25 01:57:56;;;;;;;9.20;2.70;;;18.50;99.90;;;;;;4954130;28;20251;-74
2023/05/25 02:00:30;;;;;;;6.13;2.50;;;18.50;99.90;;;;;;4959078;28;20200;-72
2023/05/25 02:03:02;;;;;;;5.68;2.22;;;18.50;99.90;;;;;;4952807;28;20649;-73
2023/05/25 02:05:33;;;;;;;6.95;2.40;;;18.50;99.90;;;;;;4954609;28;20204;-73
2023/05/25 02:08:06;;;;;;;8.55;2.53;;;18.50;99.90;;;;;;4952148;28;20197;-73
2023/05/25 02:10:37;;;;;;;5.38;2.53;;;18.40;99.90;;;;;;4949477;28;20211;-74
2023/05/25 02:13:08;;;;;;;4.85;2.50;;;18.40;99.90;;;;;;4951579;28;20373;-73
2023/05/25 02:15:39;;;;;;;8.07;2.58;;;18.30;99.90;;;;;;4953713;28;20231;-73
2023/05/25 02:18:12;;;;;;;6.38;2.80;;;18.30;99.90;;;;;;4953925;28;20569;-73
2023/05/25 02:20:43;;;;;;;7.63;2.65;;;18.20;99.90;;;;;;4955548;28;20264;-73
2023/05/25 02:23:17;;;;;;;9.80;3.72;;;18.20;99.90;;;;;;4958900;28;20208;-74
2023/05/25 02:25:50;;;;;;;7.68;3.25;;;18.20;99.90;;;;;;4951602;28;20247;-73
2023/05/25 02:28:21;;;;;;;7.65;2.80;;;18.20;99.90;;;;;;4954851;28;20201;-73
2023/05/25 02:30:52;;;;;;;4.47;2.20;;;18.20;99.90;;;;;;4952754;28;20197;-73
2023/05/25 02:33:23;;;;;;;11.25;2.92;;;18.20;99.90;;;;;;4954152;28;20205;-73
2023/05/25 02:35:54;;;;;;;7.07;2.45;;;18.20;99.90;;;;;;4954763;28;20706;-73
2023/05/25 02:38:28;;;;;;;7.53;2.30;;;18.20;99.90;;;;;;4967170;28;20200;-73
2023/05/25 02:40:59;;;;;;;10.60;2.65;;;18.20;99.90;;;;;;4960220;28;20201;-74
2023/05/25 02:43:30;;;;;;;9.65;2.42;;;18.20;99.90;;;;;;4953322;28;20201;-73
2023/05/25 02:46:01;;;;;;;9.73;2.55;;;18.20;99.90;;;;;;4953032;28;20197;-73
2023/05/25 02:48:32;;;;;;;5.57;2.60;;;18.30;99.90;;;;;;4951670;28;20193;-73
2023/05/25 02:51:03;;;;;;;7.07;2.83;;;18.30;99.90;;;;;;4953772;28;20213;-74
2023/05/25 02:53:37;;;;;;;7.10;2.42;;;18.30;99.90;;;;;;4954146;28;20252;-75
2023/05/25 02:56:09;;;;;;;6.75;2.75;;;18.30;99.90;;;;;;4953610;28;20220;-74
2023/05/25 02:58:40;;;;;;;6.90;2.55;;;18.30;99.90;;;;;;4955954;28;20201;-74
2023/05/25 03:01:16;;;;;;;10.77;2.70;;;18.20;99.90;;;;;;4954615;28;20256;-74
2023/05/25 03:03:51;;;;;;;7.90;2.40;;;18.20;99.90;;;;;;4949561;28;20196;-74
2023/05/25 03:06:22;;;;;;;5.85;2.33;;;18.10;99.90;;;;;;4954340;28;20252;-74
2023/05/25 03:08:55;;;;;;;7.38;2.42;;;18.00;99.90;;;;;;4956361;28;20679;-74
2023/05/25 03:11:26;;;;;;;7.22;2.60;;;18.00;99.90;;;;;;4954932;28;20292;-74
2023/05/25 03:13:57;;;;;;;6.63;2.22;;;17.90;99.90;;;;;;4957067;28;20605;-74
2023/05/25 03:16:28;;;;;;;12.40;3.00;;;17.90;99.90;;;;;;4957076;28;20240;-74
2023/05/25 03:18:59;;;;;;;9.13;2.47;;;17.80;99.90;;;;;;4939591;28;20202;-74
2023/05/25 03:21:31;;;;;;;8.15;3.05;;;17.80;99.90;;;;;;4956526;28;20200;-74
2023/05/25 03:24:04;;;;;;;7.57;2.88;;;17.80;99.90;;;;;;4956953;28;20556;-74
2023/05/25 03:26:35;;;;;;;10.65;3.17;;;17.80;99.90;;;;;;4953649;28;20292;-73
2023/05/25 03:29:07;;;;;;;5.97;2.42;;;17.80;99.90;;;;;;4954893;28;20568;-73
2023/05/25 03:31:38;;;;;;;7.20;2.67;;;17.80;99.90;;;;;;4956426;28;20201;-74
2023/05/25 03:34:09;;;;;;;5.72;2.40;;;17.80;99.90;;;;;;4950391;29;20201;-73
2023/05/25 03:36:44;;;;;;;6.65;2.50;;;17.80;99.90;;;;;;4957117;28;20197;-73
2023/05/25 03:39:17;;;;;;;7.20;2.35;;;17.80;99.90;;;;;;4956969;28;20679;-74
2023/05/25 03:41:48;;;;;;;7.70;3.10;;;17.80;99.90;;;;;;4957138;28;20192;-74
2023/05/25 03:44:19;;;;;;;7.60;2.63;;;17.80;99.90;;;;;;4956154;28;20213;-71
2023/05/25 03:46:51;;;;;;;5.72;1.95;;;17.80;99.90;;;;;;4957175;28;20193;-71
2023/05/25 03:49:22;;;;;;;8.95;2.30;;;17.80;99.90;;;;;;4957751;28;20193;-71
2023/05/25 03:51:53;;;;;;;6.72;2.20;;;17.80;99.90;;;;;;4957647;28;20255;-71
2023/05/25 03:54:26;;;;;;;6.53;2.25;;;17.80;99.90;;;;;;4953486;28;20204;-71
2023/05/25 03:56:57;;;;;;;4.78;2.30;;;17.90;99.90;;;;;;4956060;28;20228;-71
2023/05/25 03:59:29;;;;;;;7.97;2.50;;;17.80;99.90;;;;;;4956829;28;20272;-72
2023/05/25 04:02:00;;;;;;;8.90;2.22;;;17.80;99.90;;;;;;4956631;28;20211;-72
2023/05/25 04:04:31;;;;;;;5.32;1.95;;;17.80;99.90;;;;;;4952767;28;20597;-71
2023/05/25 04:07:02;;;;;;;7.95;2.70;;;17.70;99.90;;;;;;4954501;28;20193;-72
2023/05/25 04:09:35;;;;;;;8.10;2.47;;;17.80;99.90;;;;;;4957027;28;20193;-71
2023/05/25 04:12:06;;;;;;;5.97;2.30;;;17.80;99.90;;;;;;4955406;28;20569;-72
2023/05/25 04:14:37;;;;;;;7.85;2.40;;;17.80;99.90;;;;;;4956327;28;20203;-71
2023/05/25 04:17:08;;;;;;;6.75;2.15;;;17.80;99.90;;;;;;4955784;28;20237;-71
2023/05/25 04:19:39;;;;;;;8.13;2.25;;;17.80;99.90;;;;;;4955882;28;20205;-71
2023/05/25 04:22:10;;;;;;;5.38;1.85;;;17.80;99.90;;;;;;4955995;28;20215;-71
2023/05/25 04:24:44;;;;;;;9.75;2.22;;;17.80;99.90;;;;;;4956543;28;20201;-72
2023/05/25 04:27:15;;;;;;;6.13;1.75;;;17.80;99.90;;;;;;4955745;28;20205;-71
2023/05/25 04:29:48;;;;;;;6.03;2.20;;;17.80;99.90;;;;;;4954265;28;20684;-72
2023/05/25 04:32:20;;;;;;;6.45;2.20;;;17.80;99.90;;;;;;4954775;28;20201;-72
2023/05/25 04:34:51;;;;;;;8.18;2.38;;;17.80;99.90;;;;;;4954018;28;20751;-71
2023/05/25 04:37:22;;;;;;;6.35;2.20;;;17.80;99.90;;;;;;4953500;28;20664;-72
2023/05/25 04:39:56;;;;;;;7.72;2.28;;;17.90;99.90;;;;;;4950421;28;20205;-72
2023/05/25 04:42:27;;;;;;;8.50;2.60;;;17.90;99.90;;;;;;4963324;28;20279;-72
2023/05/25 04:44:59;;;;;;;9.65;2.75;;;17.90;99.90;;;;;;4951159;28;20259;-72
2023/05/25 04:47:30;;;;;;;5.28;2.00;;;17.90;99.90;;;;;;4954375;28;20570;-72
2023/05/25 04:50:02;;;;;;;8.40;2.30;;;17.90;99.90;;;;;;4955951;28;20197;-71
2023/05/25 04:52:33;;;;;;;5.72;2.50;;;17.90;99.90;;;;;;4953624;28;20204;-71
2023/05/25 04:55:06;;;;;;;4.80;2.20;;;17.90;99.90;;;;;;4953640;28;20221;-72
2023/05/25 04:57:37;;;;;;;6.13;2.08;;;17.90;99.90;;;;;;4954910;28;20552;-72
2023/05/25 05:00:11;;;;;;;10.23;2.03;;;17.90;99.90;;;;;;4954781;28;20555;-71
2023/05/25 05:02:42;;;;;;;4.70;2.03;;;17.90;99.90;;;;;;4955757;28;20209;-71
2023/05/25 05:05:13;;;;;;;6.35;2.20;;;17.90;99.90;;;;;;4956697;28;20715;-71
2023/05/25 05:07:45;;;;;;;6.20;2.15;;;17.90;99.90;;;;;;4955218;28;20193;-71
2023/05/25 05:10:18;;;;;;;6.75;2.20;;;17.90;99.90;;;;;;4936587;29;20237;-71
2023/05/25 05:12:49;;;;;;;8.85;2.38;;;17.80;99.90;;;;;;4936406;29;20205;-71
2023/05/25 05:15:20;;;;;;;6.22;2.22;;;17.80;99.90;;;;;;4936423;29;20229;-71
2023/05/25 05:17:51;;;;;;;5.50;1.88;;;17.80;99.90;;;;;;4937567;29;20599;-71
2023/05/25 05:20:22;;;;;;;5.47;1.90;;;17.70;99.90;;;;;;4955912;28;20189;-71
2023/05/25 05:22:54;;;;;;;4.20;1.83;;;17.70;99.90;;;;;;4955664;28;20189;-71
2023/05/25 05:25:27;;;;;;;3.78;1.80;;;17.70;99.90;;;;;;4953830;28;20744;-71
2023/05/25 05:27:58;;;;;;;5.82;2.08;;;17.60;99.90;;;;;;4952669;28;20197;-71
2023/05/25 05:30:29;;;;;;;6.32;1.75;;;17.60;99.90;;;;;;4940560;28;20674;-71
2023/05/25 05:33:00;;;;;;;4.47;1.60;;;17.60;99.90;;;;;;4953975;28;20207;-71
2023/05/25 05:35:31;;;;;;;7.13;2.28;;;17.50;99.90;;;;;;4952315;28;20220;-72
2023/05/25 05:38:02;;;;;;;7.60;2.30;;;17.40;99.90;;;;;;4950289;28;20205;-71
2023/05/25 05:40:36;;;;;;;6.43;2.38;;;17.40;99.90;;;;;;4951934;28;20574;-71
2023/05/25 05:43:07;;;;;;;4.93;1.90;;;17.40;99.90;;;;;;4951380;28;20203;-72
2023/05/25 05:45:39;;;;;;;6.80;2.13;;;17.30;99.90;;;;;;4949989;28;20201;-72
2023/05/25 05:48:13;;;;;;;6.50;2.30;;;17.30;99.90;;;;;;4949770;28;20208;-71
2023/05/25 05:50:44;;;;;;;4.00;1.88;;;17.20;99.90;;;;;;4949667;28;20211;-73
2023/05/25 05:53:15;;;;;;;6.97;2.30;;;17.20;99.90;;;;;;4949517;28;20200;-72
2023/05/25 05:55:52;;;;;;;6.75;2.60;;;17.20;99.90;;;;;;4953735;28;20221;-72
2023/05/25 05:58:25;;;;;;;6.32;2.17;;;17.20;99.90;;;;;;4951476;28;20283;-72
2023/05/25 06:00:58;;;;;;;7.28;2.50;;;17.20;99.90;;;;;;4952196;28;20205;-72
2023/05/25 06:03:29;;;;;;;7.05;2.05;;;17.10;99.90;;;;;;4950403;28;20196;-72
2023/05/25 06:06:00;;;;;;;6.05;1.92;;;17.00;99.90;;;;;;4946093;28;20211;-71
2023/05/25 06:08:31;;;;;;;7.57;2.35;;;17.00;99.90;;;;;;4948560;28;20252;-72
2023/05/25 06:11:05;;;;;;;6.65;2.40;;;16.90;99.90;;;;;;4948922;28;20208;-71
2023/05/25 06:13:36;;;;;;;4.22;2.03;;;16.90;99.90;;;;;;4948874;28;20767;-71
2023/05/25 06:16:07;;;;;;;5.85;2.30;;;16.80;99.90;;;;;;4945954;28;20248;-72
2023/05/25 06:18:38;;;;;;;6.22;2.20;;;16.70;99.90;;;;;;4947409;28;20201;-71
2023/05/25 06:21:09;;;;;;;5.40;2.28;;;16.70;99.90;;;;;;4949212;28;20193;-71
2023/05/25 06:23:40;;;;;;;6.75;2.03;;;16.70;99.90;;;;;;4950848;28;20201;-71
2023/05/25 06:26:14;;;;;;;6.65;2.35;;;16.60;99.90;;;;;;4949870;28;20208;-71
2023/05/25 06:28:46;;;;;;;6.20;2.03;;;16.60;99.90;;;;;;4954543;28;20665;-71
2023/05/25 06:31:17;;;;;;;6.32;2.40;;;16.50;99.90;;;;;;4955390;28;20204;-71
2023/05/25 06:33:48;;;;;;;5.35;2.10;;;16.40;99.90;;;;;;4957275;28;20212;-72
2023/05/25 06:36:19;;;;;;;7.45;2.13;;;16.40;99.90;;;;;;4953134;28;20230;-71
2023/05/25 06:38:50;;;;;;;4.93;2.25;;;16.30;99.90;;;;;;4955245;28;20657;-71
2023/05/25 06:41:23;;;;;;;4.75;2.35;;;16.30;99.90;;;;;;4955256;28;20208;-72
2023/05/25 06:43:54;;;;;;;4.82;2.38;;;16.20;99.90;;;;;;4948944;28;20661;-72
2023/05/25 06:46:25;;;;;;;6.15;2.33;;;16.20;99.90;;;;;;4955280;28;20688;-71
2023/05/25 06:48:56;;;;;;;6.80;2.20;;;16.10;99.90;;;;;;4952039;28;20438;-71
2023/05/25 06:51:28;;;;;;;4.93;2.33;;;16.10;99.90;;;;;;4953451;28;20219;-71
2023/05/25 06:53:59;;;;;;;6.18;2.60;;;16.00;99.90;;;;;;4955671;28;20224;-71
2023/05/25 06:56:32;;;;;;;6.70;2.53;;;16.00;99.90;;;;;;4956133;28;20864;-71
2023/05/25 06:59:03;;;;;;;8.38;2.55;;;15.90;99.90;;;;;;4956083;28;20221;-71
2023/05/25 07:01:35;;;;;;;7.10;3.00;;;15.90;99.90;;;;;;4952861;28;20204;-72
2023/05/25 07:04:06;;;;;;;7.55;2.63;;;15.90;99.90;;;;;;4953254;28;20200;-74
2023/05/25 07:06:37;;;;;;;5.00;2.22;;;15.80;99.90;;;;;;4955555;28;20220;-74
2023/05/25 07:09:09;;;;;;;8.23;2.58;;;15.80;99.90;;;;;;4955863;28;20209;-74
2023/05/25 07:11:43;;;;;;;7.85;2.78;;;15.70;99.90;;;;;;4956021;28;20193;-74
2023/05/25 07:14:15;;;;;;;5.93;2.53;;;15.80;99.90;;;;;;4952843;28;20207;-74
2023/05/25 07:16:47;;;;;;;7.15;2.50;;;15.70;99.90;;;;;;4946368;28;20606;-74
2023/05/25 07:19:18;;;;;;;6.90;2.70;;;15.70;99.90;;;;;;4952765;28;20214;-74
2023/05/25 07:21:49;;;;;;;7.25;2.97;;;15.70;99.90;;;;;;4949102;28;20202;-74
2023/05/25 07:24:20;;;;;;;6.15;2.78;;;15.70;99.90;;;;;;4945509;28;20198;-75
2023/05/25 07:26:53;;;;;;;5.30;2.85;;;15.70;99.90;;;;;;4946730;29;20566;-75
2023/05/25 07:29:24;;;;;;;6.53;2.50;;;15.60;99.90;;;;;;4954612;28;20201;-74
2023/05/25 07:31:55;;;;;;;5.97;2.67;;;15.60;99.90;;;;;;4953178;29;20205;-75
2023/05/25 07:34:26;;;;;;;4.75;2.80;;;15.60;99.90;;;;;;4951972;28;20201;-74
2023/05/25 07:36:57;;;;;;;7.35;3.17;;;15.50;99.90;;;;;;4951866;29;20711;-75
2023/05/25 07:39:28;;;;;;;8.10;3.20;;;15.50;99.90;;;;;;4956273;28;20197;-75
2023/05/25 07:42:01;;;;;;;8.20;3.38;;;15.50;99.90;;;;;;4944255;28;20197;-74
2023/05/25 07:44:32;;;;;;;7.88;3.85;;;15.50;99.90;;;;;;4957305;28;20204;-74
2023/05/25 07:47:03;;;;;;;10.13;3.70;;;15.60;99.90;;;;;;4955904;28;20661;-74
2023/05/25 07:49:34;;;;;;;7.30;2.83;;;15.70;99.90;;;;;;4955254;28;20196;-74
2023/05/25 07:52:06;;;;;;;5.32;2.38;;;16.00;99.90;;;;;;4956044;28;20197;-75
2023/05/25 07:54:39;;;;;;;6.97;2.20;;;16.20;99.90;;;;;;4956406;28;20208;-75
2023/05/25 07:57:12;;;;;;;4.28;2.00;;;16.50;99.90;;;;;;4954494;29;20216;-74
2023/05/25 07:59:43;;;;;;;3.78;2.17;;;16.80;99.90;;;;;;4955936;28;20696;-75
2023/05/25 08:02:14;;;;;;;3.90;2.20;;;17.00;99.90;;;;;;4953294;28;20224;-75
2023/05/25 08:04:45;;;;;;;6.80;2.10;;;17.20;99.90;;;;;;4955694;28;20205;-75
2023/05/25 08:07:16;;;;;;;6.00;2.13;;;17.40;99.90;;;;;;4955108;28;20201;-75
2023/05/25 08:09:48;;;;;;;4.38;1.83;;;17.50;99.90;;;;;;4955208;28;20193;-75
2023/05/25 08:12:21;;;;;;;4.03;1.90;;;17.50;99.90;;;;;;4955427;28;20212;-75
2023/05/25 08:14:52;;;;;;;4.35;1.92;;;17.50;99.90;;;;;;4953479;28;20295;-75
2023/05/25 08:17:24;;;;;;;5.57;1.73;;;17.40;99.90;;;;;;4955562;28;20331;-75
2023/05/25 08:19:55;;;;;;;5.75;1.60;;;17.40;99.90;;;;;;4955703;28;20240;-75
2023/05/25 08:22:26;;;;;;;4.50;1.88;;;17.40;99.90;;;;;;4953504;29;20673;-75
2023/05/25 08:24:58;;;;;;;2.90;1.58;;;17.50;99.90;;;;;;4955121;28;20204;-74
2023/05/25 08:27:33;;;;;;;4.47;1.73;;;17.50;99.90;;;;;;4956215;28;20568;-75
2023/05/25 08:30:04;;;;;;;3.38;1.60;;;17.50;99.90;;;;;;4955035;28;20660;-75
2023/05/25 08:32:36;;;;;;;5.85;2.00;;;17.50;99.90;;;;;;4955773;28;20252;-75
2023/05/25 08:35:08;;;;;;;3.42;1.92;;;17.40;99.90;;;;;;4955781;28;20204;-75
2023/05/25 08:37:39;;;;;;;5.55;2.38;;;17.30;99.90;;;;;;4956069;28;20223;-75
2023/05/25 08:40:15;;;;;;;7.45;2.50;;;17.10;99.90;;;;;;4955384;28;20567;-75
2023/05/25 08:42:49;;;;;;;5.22;2.50;;;17.00;99.90;;;;;;4955227;28;20201;-75
2023/05/25 08:45:20;;;;;;;5.03;2.20;;;16.80;99.90;;;;;;4956285;28;20212;-75
2023/05/25 08:47:53;;;;;;;5.43;2.60;;;16.60;99.90;;;;;;4955151;28;20215;-75
2023/05/25 08:50:25;;;;;;;5.32;2.40;;;16.50;99.90;;;;;;4955984;28;20201;-75
2023/05/25 08:52:57;;;;;;;5.85;2.63;;;16.30;99.90;;;;;;4954904;28;20319;-75
2023/05/25 08:55:32;;;;;;;7.63;2.40;;;16.20;99.90;;;;;;4955334;28;20565;-75
2023/05/25 08:58:11;;;;;;;5.00;2.30;;;16.10;99.90;;;;;;4955184;28;20591;-75
2023/05/25 09:00:46;;;;;;;5.97;2.35;;;16.00;99.90;;;;;;4953142;28;20336;-75
2023/05/25 09:03:19;;;;;;;4.28;2.65;;;15.90;99.90;;;;;;4953010;29;20283;-74
2023/05/25 09:05:51;;;;;;;7.18;2.65;;;15.80;99.90;;;;;;4954783;28;20193;-75
2023/05/25 09:08:24;;;;;;;5.38;2.60;;;15.70;99.90;;;;;;4955580;28;20209;-75
2023/05/25 09:10:57;;;;;;;4.22;2.70;;;15.60;99.90;;;;;;4954805;28;20207;-75
2023/05/25 09:13:30;;;;;;;4.38;2.53;;;15.50;99.90;;;;;;4955469;28;20197;-74
2023/05/25 09:16:02;;;;;;;4.95;2.40;;;15.50;99.90;;;;;;4948400;28;20205;-74
2023/05/25 09:18:33;;;;;;;4.65;2.65;;;15.40;99.90;;;;;;4949323;28;20208;-75
2023/05/25 09:21:04;;;;;;;6.53;2.88;;;15.40;99.90;;;;;;4954591;28;20201;-74
2023/05/25 09:23:36;;;;;;;5.10;2.80;;;15.30;99.90;;;;;;4954939;28;20224;-74
2023/05/25 09:26:08;;;;;;;7.88;3.33;;;15.20;99.90;;;;;;4955147;28;20197;-74
2023/05/25 09:28:48;;;;;;;8.00;3.42;;;15.10;99.90;;;;;;4953061;28;20661;-74
2023/05/25 09:31:19;;;;;;;7.53;3.42;;;15.10;99.90;;;;;;4952925;28;20605;-74
2023/05/25 09:33:54;;;;;;;5.30;3.10;;;15.00;99.90;;;;;;4950323;28;20209;-74
2023/05/25 09:36:25;;;;;;;7.43;3.47;;;15.00;99.90;;;;;;4942400;29;20231;-74
2023/05/25 09:38:57;;;;;;;5.10;2.80;;;15.00;99.90;;;;;;4953896;28;20205;-74
2023/05/25 09:41:29;;;;;;;6.00;2.90;;;15.00;99.90;;;;;;4954649;28;20197;-74
2023/05/25 09:44:02;;;;;;;5.88;2.85;;;15.00;99.90;;;;;;4953476;28;20565;-74
2023/05/25 09:46:36;;;;;;;7.85;3.00;;;15.00;99.90;;;;;;4952320;29;20205;-74
2023/05/25 09:49:09;;;;;;;4.80;2.80;;;15.00;99.90;;;;;;4949104;28;20201;-74
2023/05/25 09:51:40;;;;;;;6.03;2.45;;;15.00;99.90;;;;;;4949953;28;20211;-74
2023/05/25 09:54:13;;;;;;;5.25;2.90;;;15.00;99.90;;;;;;4951799;28;20230;-74
2023/05/25 09:56:45;;;;;;;5.28;2.80;;;15.00;99.90;;;;;;4953058;28;20217;-74
2023/05/25 09:59:18;;;;;;;6.82;3.05;;;15.00;99.90;;;;;;4945446;29;20225;-74
2023/05/25 10:01:54;;;;;;;6.45;2.80;;;15.00;99.90;;;;;;4954789;28;20197;-75
2023/05/25 10:04:25;;;;;;;6.82;3.45;;;14.90;99.90;;;;;;4957485;28;20204;-74
2023/05/25 10:06:57;;;;;;;11.90;3.97;;;14.90;99.90;;;;;;4957397;28;20209;-74
2023/05/25 10:09:31;;;;;;;9.43;3.60;;;14.80;99.90;;;;;;4958905;28;20201;-74
2023/05/25 10:12:03;;;;;;;6.90;3.95;;;14.90;99.90;;;;;;4958821;28;20222;-75
2023/05/25 10:14:39;;;;;;;7.63;3.45;;;14.90;99.90;;;;;;4958682;28;20201;-74
2023/05/25 10:17:12;;;;;;;6.82;3.35;;;14.90;99.90;;;;;;4945843;28;20706;-74
2023/05/25 10:19:48;;;;;;;9.75;3.40;;;14.90;99.90;;;;;;4958608;28;20205;-74
2023/05/25 10:22:22;;;;;;;7.43;3.20;;;14.80;99.90;;;;;;4958283;28;20204;-75
2023/05/25 10:24:58;;;;;;;8.13;3.40;;;14.80;99.90;;;;;;4957961;28;20201;-74
2023/05/25 10:27:36;;;;;;;6.68;3.13;;;14.90;99.90;;;;;;4958459;28;20660;-74
2023/05/25 10:30:10;;;;;;;8.35;3.28;;;14.90;99.90;;;;;;4958399;28;20226;-74
2023/05/25 10:32:42;;;;;;;4.32;2.47;;;14.90;99.90;;;;;;4958805;28;20259;-74
2023/05/25 10:35:13;;;;;;;6.53;2.50;;;15.00;99.90;;;;;;4957824;28;20204;-74
2023/05/25 10:37:46;;;;;;;4.75;2.40;;;15.00;99.90;;;;;;4958097;28;20217;-74
2023/05/25 10:40:18;;;;;;;4.55;1.90;;;15.00;99.90;;;;;;4958139;28;20201;-74
2023/05/25 10:42:49;;;;;;;4.65;2.05;;;15.00;99.90;;;;;;4957395;28;20201;-74
2023/05/25 10:45:23;;;;;;;4.05;1.90;;;15.10;99.90;;;;;;4948529;29;20566;-74
2023/05/25 10:47:54;;;;;;;5.93;2.00;;;15.00;99.90;;;;;;4953140;28;20610;-74
2023/05/25 10:50:26;;;;;;;3.70;1.90;;;15.00;99.90;;;;;;4956384;28;20196;-74
2023/05/25 10:53:07;;;;;;;7.70;2.10;;;15.10;99.90;;;;;;4953798;28;20213;-74
2023/05/25 10:55:52;;;;;;;5.35;1.70;;;15.10;99.90;;;;;;4952730;28;20211;-74
2023/05/25 10:58:28;;;;;;;4.82;1.90;;;15.20;99.90;;;;;;4952154;29;20294;-74
2023/05/25 11:01:05;;;;;;;5.25;2.00;;;15.20;99.90;;;;;;4953629;28;20432;-73
2023/05/25 11:03:50;;;;;;;6.22;2.17;;;15.20;99.90;;;;;;4954503;28;20228;-74
2023/05/25 11:06:23;;;;;;;5.03;1.60;;;15.10;99.90;;;;;;4949082;29;20248;-73
2023/05/25 11:08:56;;;;;;;3.97;1.70;;;15.10;99.90;;;;;;4957210;28;20292;-74
2023/05/25 11:12:03;;;;;;;2.13;1.42;;;15.20;99.90;;;;;;4945161;28;20542;-74
2023/05/25 11:14:37;;;;;;;4.55;1.45;;;15.40;99.90;;;;;;4948833;28;20208;-74
2023/05/25 11:17:11;;;;;;;4.20;1.52;;;15.50;99.90;;;;;;4953868;28;20280;-74
2023/05/25 11:19:47;;;;;;;3.05;1.27;;;15.60;99.90;;;;;;4956130;28;20283;-74
2023/05/25 11:22:19;;;;;;;4.75;1.70;;;15.70;99.90;;;;;;4954873;28;20213;-74
2023/05/25 11:24:51;;;;;;;4.85;1.73;;;15.90;99.90;;;;;;4940110;29;20567;-74
2023/05/25 11:27:26;;;;;;;3.63;1.40;;;15.90;99.90;;;;;;4948412;28;20318;-74
2023/05/25 11:29:58;;;;;;;3.67;1.35;;;16.00;99.90;;;;;;4958720;28;20230;-74
2023/05/25 11:32:32;;;;;;;3.03;1.75;;;16.00;99.90;;;;;;4957607;28;20189;-74
2023/05/25 11:35:03;;;;;;;3.08;1.35;;;16.10;99.90;;;;;;4957902;28;20700;-74
2023/05/25 11:37:36;;;;;;;3.97;1.50;;;16.30;99.90;;;;;;4955545;28;20759;-73
2023/05/25 11:40:12;;;;;;;3.42;1.52;;;16.30;99.90;;;;;;4955584;28;20646;-74
2023/05/25 11:42:43;;;;;;;5.22;1.55;;;16.30;99.90;;;;;;4938822;29;20269;-74
2023/05/25 11:45:15;;;;;;;2.70;1.23;;;16.30;99.90;;;;;;4938055;29;20212;-74
2023/05/25 11:47:48;;;;;;;3.45;1.40;;;16.30;99.90;;;;;;4955413;28;20229;-74
2023/05/25 11:50:20;;;;;;;6.03;2.30;;;16.20;99.90;;;;;;4956507;28;20212;-73
2023/05/25 11:52:51;;;;;;;10.63;4.80;;;16.10;99.90;;;;;;4957270;28;20649;-73
2023/05/25 11:55:22;;;;;;;7.28;3.60;;;16.10;99.90;;;;;;4956274;28;20201;-73
2023/05/25 11:58:02;;;;;;;6.28;3.28;;;16.00;99.90;;;;;;4956861;28;20247;-74
2023/05/25 12:00:33;;;;;;;4.85;2.55;;;16.00;99.90;;;;;;4957036;28;20203;-73
2023/05/25 12:03:09;;;;;;;4.72;2.60;;;16.00;99.90;;;;;;4956517;28;20653;-73
2023/05/25 12:05:43;;;;;;;3.35;2.17;;;16.00;99.90;;;;;;4956855;28;20200;-73
2023/05/25 12:08:15;;;;;;;4.40;1.90;;;16.10;99.90;;;;;;4956885;28;20211;-73
2023/05/25 12:10:55;;;;;;;3.78;1.60;;;16.10;99.90;;;;;;4956565;28;20197;-74
2023/05/25 12:13:27;;;;;;;2.95;1.52;;;16.10;99.90;;;;;;4956581;28;20216;-73
2023/05/25 12:16:00;;;;;;;3.28;1.73;;;16.20;99.90;;;;;;4956514;28;20633;-73
2023/05/25 12:18:33;;;;;;;3.35;1.42;;;16.10;99.90;;;;;;4956812;28;20275;-73
2023/05/25 12:21:07;;;;;;;3.88;1.75;;;16.10;99.90;;;;;;4956093;28;20213;-74
2023/05/25 12:23:38;;;;;;;4.25;1.80;;;16.10;99.90;;;;;;4956496;28;20363;-74
2023/05/25 12:26:12;;;;;;;2.50;1.60;;;16.10;99.90;;;;;;4954497;28;20203;-74
2023/05/25 12:28:59;;;;;;;4.15;1.50;;;16.10;99.90;;;;;;4955764;28;20201;-74
2023/05/25 12:31:31;;;;;;;2.95;1.65;;;16.10;99.90;;;;;;4956578;28;20196;-74
2023/05/25 12:34:11;;;;;;;4.57;2.72;;;16.20;99.90;;;;;;4956758;28;20292;-75
2023/05/25 12:36:45;;;;;;;4.25;2.63;;;16.20;99.90;;;;;;4954517;28;20201;-74
2023/05/25 12:39:17;;;;;;;2.97;2.10;;;16.30;99.90;;;;;;4947702;29;20319;-74
2023/05/25 12:41:57;;;;;;;4.03;1.90;;;16.30;99.90;;;;;;4955556;28;20201;-74
2023/05/25 12:44:30;;;;;;;3.97;2.00;;;16.30;99.90;;;;;;4940728;29;20279;-74
2023/05/25 12:47:13;;;;;;;3.67;1.95;;;16.30;99.90;;;;;;4955588;28;20200;-74
2023/05/25 12:49:46;;;;;;;4.15;1.52;;;16.20;99.90;;;;;;4954761;28;20216;-74
2023/05/25 12:52:34;;;;;;;4.53;1.70;;;16.20;99.90;;;;;;4956001;28;20195;-74
2023/05/25 12:55:24;;;;;;;3.17;1.63;;;16.20;99.90;;;;;;4954385;28;20203;-74
2023/05/25 12:57:56;;;;;;;4.28;1.33;;;16.20;99.90;;;;;;4954574;28;20613;-74
2023/05/25 13:00:28;;;;;;;3.63;1.60;;;16.20;99.90;;;;;;4953830;29;20211;-74
2023/05/25 13:03:00;;;;;;;3.78;1.70;;;16.20;99.90;;;;;;4954949;28;20207;-74
2023/05/25 13:05:35;;;;;;;2.92;1.52;;;16.20;99.90;;;;;;4955359;28;20681;-74
2023/05/25 13:08:07;;;;;;;3.15;1.70;;;16.20;99.90;;;;;;4955387;28;20292;-73
2023/05/25 13:10:40;;;;;;;5.25;1.58;;;16.20;99.90;;;;;;4953705;28;20207;-74
2023/05/25 13:13:12;;;;;;;3.28;1.50;;;16.20;99.90;;;;;;4955197;28;20665;-74